Time;durP1;ratioP1;P1;durP2;ratioP2;P2;SDS_P1;SDS_P2;PMS_P1;PMS_P2;Temp;Humidity;BMP_temperature;BMP_pressure;BME280_temperature;BME280_humidity;BME280_pressure;Samples;Min_cycle;Max_cycle;Signal;HPM_P1;HPM_P2
2022/10/17 00:01:10;;;;;;;5.70;3.67;;;12.20;99.90;;;;;;5053036;28;20087;-81
2022/10/17 00:03:38;;;;;;;6.22;3.80;;;12.20;99.90;;;;;;5054561;28;20107;-82
2022/10/17 00:06:09;;;;;;;6.53;3.85;;;12.20;99.90;;;;;;5052905;28;20045;-82
2022/10/17 00:08:36;;;;;;;6.82;4.88;;;12.20;99.90;;;;;;5054357;28;20049;-81
2022/10/17 00:11:08;;;;;;;7.72;4.15;;;12.20;99.90;;;;;;5053989;28;20044;-82
2022/10/17 00:13:34;;;;;;;5.72;3.67;;;12.20;99.90;;;;;;5053854;28;20060;-81
2022/10/17 00:16:00;;;;;;;21.05;5.20;;;12.20;99.90;;;;;;5053973;28;20076;-83
2022/10/17 00:18:25;;;;;;;7.28;3.40;;;12.20;99.90;;;;;;5053456;28;20516;-82
2022/10/17 00:20:51;;;;;;;8.60;3.50;;;12.30;99.90;;;;;;5053708;28;20056;-81
2022/10/17 00:23:17;;;;;;;6.93;4.13;;;12.30;99.90;;;;;;5053945;28;20448;-83
2022/10/17 00:25:43;;;;;;;6.53;3.70;;;12.30;99.90;;;;;;5054204;28;20449;-80
2022/10/17 00:28:11;;;;;;;13.75;4.78;;;12.30;99.90;;;;;;5053970;28;20126;-82
2022/10/17 00:30:36;;;;;;;8.20;3.60;;;12.30;99.90;;;;;;5053633;28;20053;-80
2022/10/17 00:33:02;;;;;;;5.63;3.58;;;12.30;99.90;;;;;;5053828;28;20052;-82
2022/10/17 00:35:28;;;;;;;6.25;3.38;;;12.30;99.90;;;;;;5054131;28;20524;-81
2022/10/17 00:37:53;;;;;;;10.05;3.70;;;12.30;99.90;;;;;;5053878;28;20048;-82
2022/10/17 00:40:19;;;;;;;4.30;3.78;;;12.30;99.90;;;;;;5053830;28;20045;-81
2022/10/17 00:42:45;;;;;;;8.02;3.08;;;12.30;99.90;;;;;;5052991;28;20041;-82
2022/10/17 00:45:26;;;;;;;7.78;3.47;;;12.30;99.90;;;;;;5053007;28;20087;-81
2022/10/17 00:47:59;;;;;;;8.68;3.50;;;12.40;99.90;;;;;;5053745;28;20057;-83
2022/10/17 00:50:25;;;;;;;8.13;3.53;;;12.40;99.90;;;;;;5053410;28;20110;-81
2022/10/17 00:52:51;;;;;;;5.75;3.30;;;12.40;99.90;;;;;;5053242;28;20086;-82
2022/10/17 00:55:24;;;;;;;5.25;2.97;;;12.50;99.90;;;;;;5053563;28;20124;-81
2022/10/17 00:57:51;;;;;;;4.75;3.05;;;12.50;99.90;;;;;;5052646;28;20453;-81
2022/10/17 01:00:18;;;;;;;7.88;3.95;;;12.50;99.90;;;;;;5053139;28;20064;-81
2022/10/17 01:02:44;;;;;;;12.23;4.20;;;12.60;99.90;;;;;;5052935;28;20044;-81
2022/10/17 01:05:11;;;;;;;8.85;5.63;;;12.60;99.90;;;;;;5053003;28;20048;-81
2022/10/17 01:07:38;;;;;;;8.15;4.38;;;12.60;99.90;;;;;;5052926;28;20060;-83
2022/10/17 01:10:06;;;;;;;6.65;4.35;;;12.70;99.90;;;;;;5052930;28;20044;-81
2022/10/17 01:12:46;;;;;;;7.68;3.58;;;12.70;99.90;;;;;;5052815;28;20048;-81
2022/10/17 01:15:17;;;;;;;5.30;4.47;;;12.70;99.90;;;;;;5053310;28;20052;-81
2022/10/17 01:18:10;;;;;;;7.43;5.57;;;12.70;99.90;;;;;;5052637;28;20429;-82
2022/10/17 01:21:14;;;;;;;6.35;5.32;;;12.80;99.90;;;;;;5053224;28;20049;-82
2022/10/17 01:24:17;;;;;;;6.22;3.97;;;12.80;99.90;;;;;;5053217;28;20045;-81
2022/10/17 01:27:13;;;;;;;5.93;4.90;;;12.80;99.90;;;;;;5052806;28;20053;-81
2022/10/17 01:29:56;;;;;;;7.40;4.50;;;12.80;99.90;;;;;;5053098;28;20049;-81
2022/10/17 01:32:39;;;;;;;13.15;5.35;;;12.90;99.90;;;;;;5052407;28;20049;-81
2022/10/17 01:35:15;;;;;;;7.60;5.07;;;12.90;99.90;;;;;;5052660;28;20471;-83
2022/10/17 01:37:52;;;;;;;6.57;4.22;;;12.90;99.90;;;;;;5052813;28;20063;-80
2022/10/17 01:40:26;;;;;;;9.00;4.60;;;12.90;99.90;;;;;;5052482;28;20047;-83
2022/10/17 01:43:10;;;;;;;8.50;5.18;;;12.90;99.90;;;;;;5084675;28;20073;-81
2022/10/17 01:45:47;;;;;;;6.53;4.70;;;12.90;99.90;;;;;;5052885;28;20069;-83
2022/10/17 01:48:17;;;;;;;4.93;4.45;;;12.90;99.90;;;;;;5085438;28;20049;-81
2022/10/17 01:50:54;;;;;;;6.88;4.88;;;12.90;99.90;;;;;;5052269;28;20135;-81
2022/10/17 01:53:33;;;;;;;5.80;4.80;;;12.90;99.90;;;;;;5052380;28;20072;-80
2022/10/17 01:56:01;;;;;;;6.15;4.82;;;12.90;99.90;;;;;;5052662;28;20127;-79
2022/10/17 01:58:35;;;;;;;6.05;3.95;;;12.90;99.90;;;;;;5067361;28;20459;-82
2022/10/17 02:01:05;;;;;;;4.90;4.10;;;12.90;99.90;;;;;;5052514;28;20064;-80
2022/10/17 02:03:33;;;;;;;6.38;4.20;;;12.90;99.90;;;;;;5085202;28;20048;-82
2022/10/17 02:05:59;;;;;;;8.88;4.32;;;12.90;99.90;;;;;;5052211;28;20049;-81
2022/10/17 02:08:39;;;;;;;7.43;4.40;;;12.80;99.90;;;;;;5052168;28;20056;-80
2022/10/17 02:11:16;;;;;;;7.72;5.03;;;12.80;99.90;;;;;;5052209;28;20045;-80
2022/10/17 02:13:45;;;;;;;9.07;5.47;;;12.80;99.90;;;;;;5052684;28;20102;-81
2022/10/17 02:16:32;;;;;;;6.43;5.60;;;12.80;99.90;;;;;;5052082;28;20048;-80
2022/10/17 02:19:10;;;;;;;6.10;4.38;;;12.80;99.90;;;;;;5052081;28;20060;-81
2022/10/17 02:21:48;;;;;;;9.75;5.32;;;12.70;99.90;;;;;;5052134;28;20045;-82
2022/10/17 02:24:47;;;;;;;9.55;5.28;;;12.70;99.90;;;;;;5052408;28;20041;-80
2022/10/17 02:27:32;;;;;;;9.98;5.25;;;12.70;99.90;;;;;;5023407;28;20183;-80
2022/10/17 02:30:06;;;;;;;13.00;5.18;;;12.70;99.90;;;;;;5052128;28;20451;-83
2022/10/17 02:32:47;;;;;;;5.00;4.50;;;12.70;99.90;;;;;;5052202;28;20072;-80
2022/10/17 02:35:14;;;;;;;7.45;4.60;;;12.60;99.90;;;;;;5084678;28;20045;-80
2022/10/17 02:37:42;;;;;;;6.47;4.90;;;12.60;99.90;;;;;;5052305;28;20037;-80
2022/10/17 02:40:09;;;;;;;6.70;4.65;;;12.60;99.90;;;;;;5051913;28;20052;-80
2022/10/17 02:42:36;;;;;;;7.20;5.35;;;12.60;99.90;;;;;;5053274;28;20040;-80
2022/10/17 02:45:04;;;;;;;10.40;5.38;;;12.60;99.90;;;;;;5056066;28;20397;-80
2022/10/17 02:47:54;;;;;;;6.68;5.03;;;12.60;99.90;;;;;;5055745;28;20157;-80
2022/10/17 02:50:23;;;;;;;8.20;5.18;;;12.50;99.90;;;;;;5056035;28;20053;-79
2022/10/17 02:53:03;;;;;;;7.63;5.13;;;12.50;99.90;;;;;;5055692;28;20057;-80
2022/10/17 02:55:37;;;;;;;8.20;5.43;;;12.50;99.90;;;;;;5056222;28;20139;-80
2022/10/17 02:58:07;;;;;;;6.65;5.35;;;12.50;99.90;;;;;;5056193;28;20053;-79
2022/10/17 03:00:34;;;;;;;7.30;4.88;;;12.50;99.90;;;;;;5055953;28;20103;-79
2022/10/17 03:03:00;;;;;;;6.03;5.35;;;12.50;99.90;;;;;;5055234;28;20137;-80
2022/10/17 03:05:28;;;;;;;8.23;5.05;;;12.50;99.90;;;;;;5055281;28;20088;-80
2022/10/17 03:07:54;;;;;;;8.38;5.88;;;12.50;99.90;;;;;;5055284;28;20045;-80
2022/10/17 03:10:21;;;;;;;6.97;5.22;;;12.50;99.90;;;;;;5055222;28;20084;-79
2022/10/17 03:12:47;;;;;;;5.70;5.20;;;12.50;99.90;;;;;;5055204;28;20111;-81
2022/10/17 03:15:13;;;;;;;13.90;6.35;;;12.50;99.90;;;;;;5055642;28;20077;-81
2022/10/17 03:17:39;;;;;;;9.73;5.47;;;12.50;99.90;;;;;;5055079;28;20490;-81
2022/10/17 03:20:06;;;;;;;6.40;5.70;;;12.50;99.90;;;;;;5054820;28;20056;-80
2022/10/17 03:22:32;;;;;;;7.07;5.53;;;12.40;99.90;;;;;;5054927;28;20074;-81
2022/10/17 03:24:58;;;;;;;9.13;6.40;;;12.50;99.90;;;;;;5055004;28;20044;-84
2022/10/17 03:27:24;;;;;;;6.53;5.10;;;12.50;99.90;;;;;;5087779;28;20045;-80
2022/10/17 03:29:49;;;;;;;7.03;5.47;;;12.50;99.90;;;;;;5087000;28;20106;-81
2022/10/17 03:32:15;;;;;;;7.25;5.90;;;12.40;99.90;;;;;;5054797;28;20044;-80
2022/10/17 03:34:41;;;;;;;10.63;6.60;;;12.40;99.90;;;;;;5054751;28;20538;-80
2022/10/17 03:37:07;;;;;;;9.43;6.85;;;12.40;99.90;;;;;;5054728;28;20051;-80
2022/10/17 03:39:32;;;;;;;8.65;6.40;;;12.40;99.90;;;;;;5054676;28;20532;-81
2022/10/17 03:41:58;;;;;;;10.70;6.38;;;12.50;99.90;;;;;;5055125;28;20041;-81
2022/10/17 03:44:24;;;;;;;12.05;6.60;;;12.40;99.90;;;;;;5054549;28;20551;-80
2022/10/17 03:46:49;;;;;;;8.20;7.40;;;12.50;99.90;;;;;;5087413;28;20080;-80
2022/10/17 03:49:15;;;;;;;9.15;6.70;;;12.50;99.90;;;;;;5055056;28;20472;-80
2022/10/17 03:51:41;;;;;;;8.30;7.05;;;12.50;99.90;;;;;;5054808;28;20070;-81
2022/10/17 03:54:06;;;;;;;9.57;6.38;;;12.60;99.90;;;;;;5053719;28;20037;-83
2022/10/17 03:56:32;;;;;;;7.07;6.38;;;12.60;99.90;;;;;;5054463;28;20056;-81
2022/10/17 03:58:57;;;;;;;8.23;6.75;;;12.60;99.90;;;;;;5054045;28;20053;-83
2022/10/17 04:01:23;;;;;;;9.27;7.78;;;12.60;99.90;;;;;;5054390;28;20379;-80
2022/10/17 04:03:50;;;;;;;7.65;6.93;;;12.70;99.90;;;;;;5054167;28;20084;-83
2022/10/17 04:06:17;;;;;;;8.88;6.60;;;12.70;99.90;;;;;;5054211;28;20041;-81
2022/10/17 04:08:42;;;;;;;13.23;7.40;;;12.70;99.90;;;;;;5054063;28;20053;-81
2022/10/17 04:11:12;;;;;;;8.52;6.88;;;12.70;99.90;;;;;;5054036;28;20079;-82
2022/10/17 04:13:37;;;;;;;10.25;7.30;;;12.70;99.90;;;;;;5053942;28;20044;-82
2022/10/17 04:16:06;;;;;;;8.68;7.78;;;12.70;99.90;;;;;;5054493;28;20048;-80
2022/10/17 04:18:32;;;;;;;9.82;7.40;;;12.80;99.90;;;;;;5054168;28;20056;-80
2022/10/17 04:21:00;;;;;;;8.98;7.60;;;12.80;99.90;;;;;;5053755;28;20049;-80
2022/10/17 04:23:26;;;;;;;8.40;7.50;;;12.90;99.90;;;;;;5053791;28;20083;-81
2022/10/17 04:25:55;;;;;;;8.77;7.78;;;12.90;99.90;;;;;;5053702;28;20116;-80
2022/10/17 04:28:21;;;;;;;15.48;8.55;;;12.90;99.90;;;;;;5053728;28;20115;-80
2022/10/17 04:30:47;;;;;;;9.35;7.60;;;12.90;99.90;;;;;;5053998;28;20049;-80
2022/10/17 04:33:12;;;;;;;11.68;8.50;;;12.90;99.90;;;;;;5053616;28;20041;-80
2022/10/17 04:35:38;;;;;;;9.07;7.90;;;12.90;99.90;;;;;;5053945;28;20114;-83
2022/10/17 04:38:04;;;;;;;9.60;7.97;;;13.00;99.90;;;;;;5054253;28;20079;-80
2022/10/17 04:40:29;;;;;;;9.80;8.80;;;13.00;99.90;;;;;;5053231;28;20049;-80
2022/10/17 04:42:55;;;;;;;11.20;8.70;;;13.00;99.90;;;;;;5053378;28;20036;-80
2022/10/17 04:45:20;;;;;;;12.05;8.20;;;13.10;99.90;;;;;;5053351;28;20041;-81
2022/10/17 04:47:46;;;;;;;11.98;8.82;;;13.10;99.90;;;;;;5053403;28;20045;-81
2022/10/17 04:50:12;;;;;;;10.70;8.73;;;13.10;99.90;;;;;;5053389;28;20088;-81
2022/10/17 04:52:37;;;;;;;12.30;9.77;;;13.20;99.90;;;;;;5053316;28;20049;-81
2022/10/17 04:55:06;;;;;;;13.00;8.68;;;13.20;99.90;;;;;;5053229;28;20059;-80
2022/10/17 04:57:35;;;;;;;11.27;9.38;;;13.30;99.90;;;;;;5053117;28;20056;-80
2022/10/17 05:00:01;;;;;;;8.90;8.00;;;13.40;99.90;;;;;;5052667;28;20083;-81
2022/10/17 05:02:27;;;;;;;11.23;8.98;;;13.50;99.90;;;;;;5085403;28;20463;-82
2022/10/17 05:04:52;;;;;;;12.27;9.30;;;13.50;99.90;;;;;;5052901;28;20044;-80
2022/10/17 05:07:18;;;;;;;10.10;9.10;;;13.60;99.90;;;;;;5052564;28;20451;-83
2022/10/17 05:09:44;;;;;;;14.80;9.23;;;13.60;99.90;;;;;;5052584;28;20059;-82
2022/10/17 05:12:09;;;;;;;11.20;9.13;;;13.60;99.90;;;;;;5052911;28;20051;-80
2022/10/17 05:14:35;;;;;;;13.00;9.02;;;13.60;99.90;;;;;;5052719;28;20132;-79
2022/10/17 05:17:01;;;;;;;10.70;8.68;;;13.60;99.90;;;;;;5052836;28;20041;-81
2022/10/17 05:19:26;;;;;;;10.25;8.85;;;13.70;99.90;;;;;;5052848;28;20060;-81
2022/10/17 05:21:52;;;;;;;10.43;9.10;;;13.70;99.90;;;;;;5053254;28;20037;-81
2022/10/17 05:24:18;;;;;;;9.82;8.27;;;13.70;99.90;;;;;;5053015;28;20072;-83
2022/10/17 05:26:43;;;;;;;13.73;10.40;;;13.70;99.90;;;;;;5052530;28;20108;-80
2022/10/17 05:29:09;;;;;;;12.43;9.55;;;13.80;99.90;;;;;;5052527;28;20055;-81
2022/10/17 05:31:35;;;;;;;13.48;9.10;;;13.80;99.90;;;;;;5051427;28;20527;-81
2022/10/17 05:34:02;;;;;;;13.10;9.52;;;13.80;99.90;;;;;;5052688;28;20045;-81
2022/10/17 05:36:28;;;;;;;16.40;10.38;;;13.80;99.90;;;;;;5052793;28;20049;-81
2022/10/17 05:38:54;;;;;;;11.88;8.98;;;13.90;99.90;;;;;;5052872;28;20382;-81
2022/10/17 05:41:19;;;;;;;12.80;8.55;;;13.90;99.90;;;;;;5052003;28;20119;-81
2022/10/17 05:43:46;;;;;;;12.13;8.50;;;13.90;99.90;;;;;;5052412;28;20092;-81
2022/10/17 05:46:12;;;;;;;11.63;8.80;;;14.00;99.90;;;;;;5052203;28;20560;-80
2022/10/17 05:48:37;;;;;;;12.57;9.10;;;14.00;99.90;;;;;;5052461;28;20082;-81
2022/10/17 05:51:08;;;;;;;15.18;10.90;;;14.00;99.90;;;;;;5052491;28;20041;-81
2022/10/17 05:53:38;;;;;;;13.13;10.35;;;14.00;99.90;;;;;;5052639;28;20053;-80
2022/10/17 05:56:06;;;;;;;13.48;9.52;;;14.00;99.90;;;;;;5052950;28;20048;-80
2022/10/17 05:58:33;;;;;;;11.75;9.07;;;14.00;99.90;;;;;;5052806;28;20061;-80
2022/10/17 06:01:02;;;;;;;12.55;9.93;;;14.00;99.90;;;;;;5052420;28;20056;-81
2022/10/17 06:03:28;;;;;;;14.90;10.32;;;14.10;99.90;;;;;;5052182;28;20048;-80
2022/10/17 06:05:54;;;;;;;14.43;8.40;;;14.00;99.90;;;;;;5052296;28;20049;-80
2022/10/17 06:08:20;;;;;;;10.57;9.15;;;14.10;99.90;;;;;;5052211;28;20049;-82
2022/10/17 06:10:47;;;;;;;14.23;9.52;;;14.10;99.90;;;;;;5052139;28;20046;-81
2022/10/17 06:13:13;;;;;;;13.45;9.70;;;14.20;99.90;;;;;;5052396;28;20060;-79
2022/10/17 06:15:39;;;;;;;11.57;9.13;;;14.20;99.90;;;;;;5052118;28;20056;-80
2022/10/17 06:18:05;;;;;;;9.55;8.55;;;14.20;99.90;;;;;;5054271;28;20045;-80
2022/10/17 06:20:30;;;;;;;14.48;9.80;;;15.00;99.90;;;;;;5055784;28;20045;-81
2022/10/17 06:22:56;;;;;;;13.05;9.77;;;14.20;99.90;;;;;;5056068;28;20045;-82
2022/10/17 06:25:22;;;;;;;12.40;9.25;;;14.30;99.90;;;;;;5055645;28;20044;-79
2022/10/17 06:27:47;;;;;;;14.02;9.95;;;14.30;99.90;;;;;;5056309;28;20048;-81
2022/10/17 06:30:13;;;;;;;14.48;10.70;;;14.40;99.90;;;;;;5056053;28;20508;-80
2022/10/17 06:32:39;;;;;;;12.93;9.32;;;14.40;99.90;;;;;;5055004;28;20489;-82
2022/10/17 06:35:05;;;;;;;15.15;11.07;;;14.40;99.90;;;;;;5055979;28;20473;-80
2022/10/17 06:37:32;;;;;;;16.65;10.23;;;14.40;99.90;;;;;;5055556;28;20068;-80
2022/10/17 06:39:58;;;;;;;12.93;9.40;;;14.50;99.90;;;;;;5055566;28;20048;-84
2022/10/17 06:42:23;;;;;;;10.73;9.13;;;14.50;99.90;;;;;;5055390;28;20045;-81
2022/10/17 06:44:49;;;;;;;11.85;8.82;;;14.50;99.90;;;;;;5055331;28;20049;-79
2022/10/17 06:47:15;;;;;;;12.48;9.13;;;14.60;99.90;;;;;;5055865;28;20043;-80
2022/10/17 06:49:40;;;;;;;12.98;9.73;;;14.60;99.90;;;;;;5055492;28;20041;-82
2022/10/17 06:52:06;;;;;;;14.25;10.80;;;14.70;99.90;;;;;;5055879;28;20075;-81
2022/10/17 06:54:32;;;;;;;17.75;10.93;;;14.70;99.90;;;;;;5055642;28;20045;-79
2022/10/17 06:56:58;;;;;;;12.88;10.25;;;14.70;99.90;;;;;;5055769;28;20044;-80
2022/10/17 06:59:23;;;;;;;12.57;9.10;;;14.80;99.90;;;;;;5053891;28;20076;-78
2022/10/17 07:01:49;;;;;;;14.73;9.05;;;14.80;99.90;;;;;;5055172;28;20048;-78
2022/10/17 07:04:15;;;;;;;11.98;9.10;;;14.90;99.90;;;;;;5055214;28;20118;-80
2022/10/17 07:06:40;;;;;;;14.38;9.23;;;14.90;99.90;;;;;;5054923;28;20448;-78
2022/10/17 07:09:06;;;;;;;12.23;9.50;;;15.00;99.90;;;;;;5054154;28;20063;-80
2022/10/17 07:11:33;;;;;;;13.70;9.60;;;15.00;99.90;;;;;;5055193;28;20041;-78
2022/10/17 07:13:59;;;;;;;11.82;9.35;;;15.10;99.90;;;;;;5055475;28;20044;-78
2022/10/17 07:16:26;;;;;;;11.93;10.07;;;15.10;99.90;;;;;;5054643;28;20347;-81
2022/10/17 07:18:53;;;;;;;10.30;8.52;;;15.20;99.90;;;;;;5055173;28;20150;-81
2022/10/17 07:21:19;;;;;;;16.00;9.70;;;15.30;99.90;;;;;;5054089;28;20224;-81
2022/10/17 07:23:44;;;;;;;12.85;7.82;;;15.40;99.90;;;;;;5087426;28;20486;-81
2022/10/17 07:26:12;;;;;;;13.57;8.82;;;15.50;99.90;;;;;;5053788;28;20102;-81
2022/10/17 07:28:41;;;;;;;10.10;7.93;;;15.60;99.90;;;;;;5053793;28;20040;-81
2022/10/17 07:31:10;;;;;;;12.98;8.70;;;15.60;99.90;;;;;;5055268;28;20155;-81
2022/10/17 07:33:35;;;;;;;12.73;9.10;;;15.70;99.90;;;;;;5054740;28;20434;-81
2022/10/17 07:36:02;;;;;;;12.70;8.15;;;15.70;99.90;;;;;;5054684;28;20051;-81
2022/10/17 07:38:28;;;;;;;11.68;9.38;;;15.80;99.90;;;;;;5054613;28;20070;-81
2022/10/17 07:40:56;;;;;;;12.52;9.30;;;15.90;99.90;;;;;;5055036;28;20135;-81
2022/10/17 07:43:23;;;;;;;12.73;8.23;;;15.90;99.90;;;;;;5054629;28;20372;-81
2022/10/17 07:45:49;;;;;;;11.75;7.72;;;16.00;99.90;;;;;;5054493;28;20135;-80
2022/10/17 07:48:14;;;;;;;10.90;8.98;;;16.00;99.90;;;;;;5053684;28;20497;-80
2022/10/17 07:50:40;;;;;;;10.93;8.07;;;16.10;99.90;;;;;;5086878;28;20049;-80
2022/10/17 07:53:05;;;;;;;10.57;7.25;;;16.20;99.90;;;;;;5054288;28;20049;-80
2022/10/17 07:55:31;;;;;;;9.02;6.68;;;16.20;99.90;;;;;;5086727;28;20056;-80
2022/10/17 07:57:59;;;;;;;13.25;7.57;;;16.30;99.90;;;;;;5054646;28;20045;-81
2022/10/17 08:00:26;;;;;;;11.75;7.72;;;16.80;99.90;;;;;;5087066;28;20467;-79
2022/10/17 08:02:51;;;;;;;11.05;7.55;;;16.40;99.90;;;;;;5054551;28;20041;-80
2022/10/17 08:05:17;;;;;;;14.13;8.45;;;16.50;99.90;;;;;;5054319;28;20394;-79
2022/10/17 08:07:43;;;;;;;10.43;7.07;;;16.50;99.90;;;;;;5054486;28;20470;-80
2022/10/17 08:10:11;;;;;;;10.15;7.65;;;16.50;99.90;;;;;;5054547;28;20500;-82
2022/10/17 08:12:37;;;;;;;11.38;8.15;;;16.60;99.90;;;;;;5054152;28;20095;-81
2022/10/17 08:15:04;;;;;;;10.45;7.35;;;16.70;99.90;;;;;;5086382;28;20049;-80
2022/10/17 08:17:30;;;;;;;12.20;8.00;;;16.80;99.90;;;;;;5053773;28;20129;-81
2022/10/17 08:19:55;;;;;;;10.20;7.53;;;16.90;99.90;;;;;;5054059;28;20080;-81
2022/10/17 08:22:21;;;;;;;8.05;7.00;;;16.90;99.90;;;;;;5053058;28;20479;-80
2022/10/17 08:24:47;;;;;;;12.93;7.25;;;17.00;99.90;;;;;;5054066;28;20052;-80
2022/10/17 08:27:13;;;;;;;9.27;7.65;;;17.10;99.90;;;;;;5054064;28;20044;-81
2022/10/17 08:29:39;;;;;;;11.25;7.93;;;17.10;99.90;;;;;;5054157;28;20092;-80
2022/10/17 08:32:06;;;;;;;9.00;6.13;;;17.10;99.90;;;;;;5085865;28;20041;-80
2022/10/17 08:34:32;;;;;;;8.82;6.78;;;17.10;99.90;;;;;;5052240;28;20049;-80
2022/10/17 08:36:57;;;;;;;10.70;6.57;;;17.10;99.90;;;;;;5053211;28;20045;-81
2022/10/17 08:39:23;;;;;;;9.32;6.32;;;17.10;99.90;;;;;;5053396;28;20063;-81
2022/10/17 08:42:01;;;;;;;10.95;7.63;;;17.20;99.90;;;;;;5053050;28;20048;-80
2022/10/17 08:44:45;;;;;;;10.95;8.07;;;17.10;99.90;;;;;;5053467;28;20521;-80
2022/10/17 08:47:32;;;;;;;8.82;6.78;;;17.10;99.90;;;;;;5053268;28;20037;-81
2022/10/17 08:50:02;;;;;;;10.55;7.53;;;17.20;99.90;;;;;;5052030;28;20164;-81
2022/10/17 08:52:45;;;;;;;10.07;7.53;;;17.20;99.90;;;;;;5053309;28;20040;-80
2022/10/17 08:55:16;;;;;;;8.00;6.40;;;17.20;99.90;;;;;;5055393;28;20049;-80
2022/10/17 08:57:43;;;;;;;10.45;6.55;;;17.20;99.90;;;;;;5055905;28;20462;-80
2022/10/17 09:00:18;;;;;;;8.43;7.05;;;17.20;99.90;;;;;;5088793;28;20059;-80
2022/10/17 09:02:44;;;;;;;8.38;6.22;;;17.20;99.90;;;;;;5056829;28;20048;-80
2022/10/17 09:05:18;;;;;;;10.38;7.22;;;17.20;99.90;;;;;;5057671;28;20041;-80
2022/10/17 09:07:50;;;;;;;10.02;7.05;;;17.30;99.90;;;;;;5056455;28;20049;-80
2022/10/17 09:10:41;;;;;;;9.05;6.28;;;17.30;99.90;;;;;;5057744;28;20041;-80
2022/10/17 09:13:15;;;;;;;10.68;6.47;;;17.30;99.90;;;;;;5057055;28;20043;-81
2022/10/17 09:16:06;;;;;;;10.82;6.55;;;17.40;99.90;;;;;;5056219;28;20048;-80
2022/10/17 09:18:34;;;;;;;10.55;6.22;;;17.50;99.90;;;;;;5053609;28;20052;-80
2022/10/17 09:21:23;;;;;;;8.20;6.65;;;17.50;99.90;;;;;;5052677;28;20045;-80
2022/10/17 09:23:53;;;;;;;8.32;6.70;;;17.50;99.90;;;;;;5052740;28;20197;-80
2022/10/17 09:26:19;;;;;;;7.18;5.93;;;17.50;99.90;;;;;;5052706;28;20045;-79
2022/10/17 09:28:50;;;;;;;10.80;6.90;;;17.50;99.90;;;;;;5052788;28;20085;-79
2022/10/17 09:31:23;;;;;;;9.65;6.47;;;17.50;99.90;;;;;;5052640;28;20474;-80
2022/10/17 09:33:50;;;;;;;;;;;17.50;99.90;;;;;;5085633;28;20079;-78
2022/10/17 09:36:31;;;;;;;9.27;5.97;;;17.50;99.90;;;;;;5053205;28;20055;-80
2022/10/17 09:38:59;;;;;;;7.57;5.88;;;17.50;99.90;;;;;;5052616;28;20496;-80
2022/10/17 09:41:36;;;;;;;7.00;6.30;;;17.50;99.90;;;;;;5052475;28;20450;-80
2022/10/17 09:44:32;;;;;;;7.72;6.07;;;17.50;99.90;;;;;;5052423;28;20068;-79
2022/10/17 09:46:57;;;;;;;8.52;6.20;;;17.50;99.90;;;;;;5051106;28;20083;-80
2022/10/17 09:49:31;;;;;;;8.50;6.35;;;17.50;99.90;;;;;;5052499;28;20041;-80
2022/10/17 09:51:57;;;;;;;11.85;6.90;;;17.50;99.90;;;;;;5051849;28;20076;-80
2022/10/17 09:54:29;;;;;;;9.57;5.72;;;17.40;99.90;;;;;;5052292;28;20136;-80
2022/10/17 09:57:08;;;;;;;9.38;6.57;;;17.50;99.90;;;;;;5052566;28;20131;-80
2022/10/17 09:59:39;;;;;;;8.50;6.57;;;17.40;99.90;;;;;;5052482;28;20088;-80
2022/10/17 10:02:17;;;;;;;7.57;6.22;;;17.40;99.90;;;;;;5052113;28;20037;-79
2022/10/17 10:05:00;;;;;;;10.23;6.80;;;17.40;99.90;;;;;;5052102;28;20048;-79
2022/10/17 10:07:29;;;;;;;11.57;6.70;;;17.40;99.90;;;;;;5052581;28;20057;-79
2022/10/17 10:09:56;;;;;;;8.57;6.70;;;17.30;99.90;;;;;;5084472;28;20135;-80
2022/10/17 10:12:25;;;;;;;12.15;6.80;;;17.30;99.90;;;;;;5052016;28;20041;-79
2022/10/17 10:14:51;;;;;;;12.65;7.18;;;17.20;99.90;;;;;;5051888;28;20430;-79
2022/10/17 10:17:32;;;;;;;10.07;7.10;;;17.20;99.90;;;;;;5052537;28;20049;-78
2022/10/17 10:19:58;;;;;;;13.75;7.70;;;17.10;99.90;;;;;;5052720;28;20037;-81
2022/10/17 10:22:24;;;;;;;16.05;8.52;;;17.10;99.90;;;;;;5051385;28;20071;-78
2022/10/17 10:25:14;;;;;;;12.05;8.23;;;17.10;99.90;;;;;;5052426;28;20041;-76
2022/10/17 10:27:42;;;;;;;10.45;7.90;;;17.10;99.90;;;;;;5052836;28;20045;-75
2022/10/17 10:30:17;;;;;;;9.40;7.50;;;17.10;99.90;;;;;;5052299;28;20052;-76
2022/10/17 10:32:47;;;;;;;8.63;7.20;;;17.00;99.90;;;;;;5052294;28;20049;-77
2022/10/17 10:35:21;;;;;;;8.93;7.50;;;17.00;99.90;;;;;;5051740;28;20063;-76
2022/10/17 10:37:55;;;;;;;14.25;8.23;;;17.00;99.90;;;;;;5052275;28;20056;-79
2022/10/17 10:40:33;;;;;;;9.93;7.38;;;17.00;99.90;;;;;;5052320;28;20059;-77
2022/10/17 10:43:00;;;;;;;9.20;8.30;;;17.00;99.90;;;;;;5056074;28;20080;-79
2022/10/17 10:45:47;;;;;;;12.07;8.40;;;17.00;99.90;;;;;;5052228;28;20077;-75
2022/10/17 10:48:33;;;;;;;9.73;7.88;;;17.00;99.90;;;;;;5050774;28;20148;-76
2022/10/17 10:51:33;;;;;;;9.85;8.07;;;17.00;99.90;;;;;;5052143;28;20065;-81
2022/10/17 10:54:14;;;;;;;11.82;8.57;;;17.00;99.90;;;;;;5052986;28;20069;-79
2022/10/17 10:56:49;;;;;;;13.75;8.50;;;16.90;99.90;;;;;;5051953;28;20052;-73
2022/10/17 10:59:17;;;;;;;15.60;9.98;;;16.90;99.90;;;;;;5051551;28;20059;-75
2022/10/17 11:02:20;;;;;;;13.85;8.70;;;16.90;99.90;;;;;;5051467;28;20136;-75
2022/10/17 11:05:21;;;;;;;12.90;8.67;;;16.90;99.90;;;;;;5054868;28;20048;-75
2022/10/17 11:08:10;;;;;;;12.35;9.52;;;16.90;99.90;;;;;;5022634;28;20057;-75
2022/10/17 11:11:16;;;;;;;12.80;8.63;;;16.90;99.90;;;;;;5055197;28;20140;-80
2022/10/17 11:14:05;;;;;;;10.50;7.75;;;16.90;99.90;;;;;;5054933;28;20064;-77
2022/10/17 11:16:40;;;;;;;10.10;7.47;;;17.00;99.90;;;;;;5054767;28;20048;-76
2022/10/17 11:19:12;;;;;;;13.48;8.13;;;17.00;99.90;;;;;;5054826;28;20049;-78
2022/10/17 11:22:27;;;;;;;12.68;8.35;;;17.10;99.90;;;;;;5055042;28;20052;-80
2022/10/17 11:25:05;;;;;;;11.05;7.72;;;17.10;99.90;;;;;;5031033;28;20053;-78
2022/10/17 11:27:33;;;;;;;12.93;9.32;;;17.20;99.90;;;;;;5055241;28;20048;-78
2022/10/17 11:29:59;;;;;;;10.90;8.80;;;17.20;99.90;;;;;;5053859;28;20391;-80
2022/10/17 11:33:01;;;;;;;11.57;7.88;;;17.10;99.90;;;;;;5054699;28;20040;-78
2022/10/17 11:35:37;;;;;;;11.45;8.50;;;17.10;99.90;;;;;;5054939;28;20041;-80
2022/10/17 11:38:12;;;;;;;10.50;8.07;;;17.10;99.90;;;;;;5054447;28;20052;-83
2022/10/17 11:40:41;;;;;;;13.15;9.32;;;17.10;99.90;;;;;;5054938;28;20130;-79
2022/10/17 11:43:22;;;;;;;12.95;9.48;;;17.10;99.90;;;;;;5053003;28;20499;-80
2022/10/17 11:45:55;;;;;;;13.15;8.30;;;17.00;99.90;;;;;;5053530;28;20360;-79
2022/10/17 11:48:36;;;;;;;10.55;8.88;;;17.00;99.90;;;;;;5054668;28;20057;-78
2022/10/17 11:51:08;;;;;;;15.43;10.40;;;17.00;99.90;;;;;;5054226;28;20049;-80
2022/10/17 11:54:08;;;;;;;12.00;9.43;;;17.00;99.90;;;;;;5054720;28;20120;-81
2022/10/17 11:56:45;;;;;;;11.85;8.73;;;17.10;99.90;;;;;;5045526;28;20049;-78
2022/10/17 11:59:19;;;;;;;13.10;8.30;;;17.10;99.90;;;;;;5054525;28;20052;-76
2022/10/17 12:01:53;;;;;;;10.98;7.95;;;17.10;99.90;;;;;;5054288;28;20060;-76
2022/10/17 12:04:36;;;;;;;9.35;7.93;;;17.00;99.90;;;;;;5053763;28;20053;-78
2022/10/17 12:07:20;;;;;;;;;;;17.10;99.90;;;;;;5057161;28;20361;-77
2022/10/17 12:09:55;;;;;;;10.25;8.32;;;17.10;99.90;;;;;;5055829;28;20256;-77
2022/10/17 12:12:29;;;;;;;11.82;7.03;;;17.20;99.90;;;;;;5054232;28;20037;-77
2022/10/17 12:15:19;;;;;;;10.88;7.82;;;17.30;99.90;;;;;;5053114;28;20056;-78
2022/10/17 12:17:53;;;;;;;9.50;7.47;;;17.40;99.90;;;;;;5053969;28;20124;-78
2022/10/17 12:20:19;;;;;;;10.27;5.82;;;17.50;99.90;;;;;;5054350;28;20061;-78
2022/10/17 12:22:53;;;;;;;7.68;6.10;;;17.50;99.90;;;;;;5053595;28;20493;-78
2022/10/17 12:25:26;;;;;;;8.20;5.60;;;17.50;99.90;;;;;;5053249;28;20551;-81
2022/10/17 12:28:09;;;;;;;9.18;6.13;;;17.50;99.90;;;;;;5053527;28;20045;-82
2022/10/17 12:30:35;;;;;;;7.97;6.22;;;17.50;99.90;;;;;;5053437;28;20094;-79
2022/10/17 12:33:29;;;;;;;8.15;6.97;;;17.50;99.90;;;;;;5053811;28;20047;-79
2022/10/17 12:36:21;;;;;;;8.07;6.70;;;17.50;99.90;;;;;;5053724;28;20079;-79
2022/10/17 12:39:13;;;;;;;8.75;5.95;;;17.60;99.90;;;;;;5029924;28;20063;-77
2022/10/17 12:41:38;;;;;;;7.82;6.43;;;17.50;99.90;;;;;;5053176;28;20045;-79
2022/10/17 12:44:13;;;;;;;7.93;5.32;;;17.50;99.90;;;;;;5053499;28;20041;-78
2022/10/17 12:46:57;;;;;;;7.30;5.10;;;17.40;99.90;;;;;;5053380;28;20091;-79
2022/10/17 12:49:38;;;;;;;7.15;5.47;;;17.50;99.90;;;;;;5052975;28;20455;-78
2022/10/17 12:52:05;;;;;;;8.90;5.18;;;17.50;99.90;;;;;;5053530;28;20098;-78
2022/10/17 12:54:38;;;;;;;6.95;5.45;;;17.40;99.90;;;;;;5053058;28;20052;-79
2022/10/17 12:57:39;;;;;;;11.23;6.97;;;17.30;99.90;;;;;;5053112;28;20084;-78
2022/10/17 13:00:22;;;;;;;6.35;5.07;;;17.30;99.90;;;;;;5049623;28;20132;-80
2022/10/17 13:02:50;;;;;;;;;;;17.30;99.90;;;;;;5053393;28;20048;-78
2022/10/17 13:05:29;;;;;;;7.53;5.93;;;17.30;99.90;;;;;;5052869;28;19959;-77